createdAt,value
2022-12-27T00:01:04.163Z,10.6
2022-12-27T00:02:21.268Z,11.3
2022-12-27T00:03:38.373Z,11
2022-12-27T00:04:55.479Z,10.2
2022-12-27T00:06:12.584Z,9.9
2022-12-27T00:07:29.690Z,10
2022-12-27T00:08:45.811Z,9.8
2022-12-27T00:10:02.916Z,9.6
2022-12-27T00:11:20.022Z,10
2022-12-27T00:12:37.127Z,10
2022-12-27T00:13:54.232Z,10.2
2022-12-27T00:15:11.338Z,9.8
2022-12-27T00:16:28.443Z,9.4
2022-12-27T00:17:44.570Z,9.2
2022-12-27T00:19:00.691Z,9.2
2022-12-27T00:20:17.798Z,9.1
2022-12-27T00:21:33.924Z,9.3
2022-12-27T00:22:50.046Z,9.5
2022-12-27T00:24:07.151Z,9.9
2022-12-27T00:25:24.257Z,9.8
2022-12-27T00:26:41.362Z,9.4
2022-12-27T00:27:58.467Z,9.8
2022-12-27T00:29:15.573Z,9.3
2022-12-27T00:30:32.678Z,9.4
2022-12-27T00:31:49.784Z,9.2
2022-12-27T00:33:06.889Z,9
2022-12-27T00:34:23.994Z,9
2022-12-27T00:35:41.100Z,9.3
2022-12-27T00:36:58.205Z,8.8
2022-12-27T00:38:15.311Z,9.1
2022-12-27T00:39:31.432Z,9.2
2022-12-27T00:40:48.537Z,8.9
2022-12-27T00:42:05.643Z,8.6
2022-12-27T00:43:22.749Z,8.6
2022-12-27T00:44:39.854Z,8.7
2022-12-27T00:45:56.959Z,8.5
2022-12-27T00:47:14.065Z,8.8
2022-12-27T00:48:30.191Z,8.8
2022-12-27T00:49:46.313Z,9.5
2022-12-27T00:51:02.439Z,9.2
2022-12-27T00:52:18.559Z,9.1
2022-12-27T00:53:35.664Z,9.1
2022-12-27T00:54:52.769Z,8.9
2022-12-27T00:56:09.875Z,9
2022-12-27T00:57:26.980Z,9
2022-12-27T00:58:44.086Z,8.7
2022-12-27T01:00:01.191Z,8.8
2022-12-27T01:01:18.296Z,8.7
2022-12-27T01:02:35.403Z,8.9
2022-12-27T01:03:52.508Z,9.1
2022-12-27T01:05:09.614Z,8.9
2022-12-27T01:06:26.719Z,8.8
2022-12-27T01:07:43.824Z,9
2022-12-27T01:08:59.946Z,8.7
2022-12-27T01:10:17.052Z,8.6
2022-12-27T01:11:34.157Z,8.5
2022-12-27T01:12:51.262Z,8.7
2022-12-27T01:14:08.368Z,8.5
2022-12-27T01:15:25.473Z,8.3
2022-12-27T01:16:42.578Z,8.3
2022-12-27T01:17:58.705Z,8.1
2022-12-27T01:19:14.827Z,8.3
2022-12-27T01:20:30.953Z,8.4
2022-12-27T01:21:47.075Z,8.4
2022-12-27T01:23:04.180Z,8.5
2022-12-27T01:24:21.285Z,8.2
2022-12-27T01:25:38.391Z,8
2022-12-27T01:26:55.496Z,8.4
2022-12-27T01:28:12.601Z,8.1
2022-12-27T01:29:29.706Z,8.1
2022-12-27T01:30:46.812Z,8.2
2022-12-27T01:32:03.917Z,8.3
2022-12-27T01:33:21.022Z,8.2
2022-12-27T01:34:38.128Z,8.2
2022-12-27T01:35:55.233Z,8.5
2022-12-27T01:37:12.338Z,8.3
2022-12-27T01:38:28.460Z,8.4
2022-12-27T01:39:45.565Z,8.3
2022-12-27T01:41:02.670Z,8.3
2022-12-27T01:42:19.776Z,8.1
2022-12-27T01:43:36.881Z,8.1
2022-12-27T01:44:53.986Z,8.4
2022-12-27T01:46:11.092Z,8.4
2022-12-27T01:47:27.218Z,8.3
2022-12-27T01:48:43.340Z,8.4
2022-12-27T01:50:00.445Z,8.4
2022-12-27T01:51:17.551Z,8
2022-12-27T01:52:33.677Z,8.3
2022-12-27T01:53:49.798Z,8.1
2022-12-27T01:55:06.904Z,8.3
2022-12-27T01:56:24.009Z,8.2
2022-12-27T01:57:41.114Z,8.1
2022-12-27T01:58:58.219Z,8.2
2022-12-27T02:00:15.325Z,8.2
2022-12-27T02:01:32.430Z,7.9
2022-12-27T02:02:49.535Z,8.5
2022-12-27T02:04:06.641Z,8.4
2022-12-27T02:05:23.746Z,8.1
2022-12-27T02:06:40.851Z,8.5
2022-12-27T02:07:57.956Z,8.4
2022-12-27T02:09:15.061Z,8.5
2022-12-27T02:10:31.182Z,8.4
2022-12-27T02:11:48.287Z,8.7
2022-12-27T02:13:05.392Z,8.2
2022-12-27T02:14:22.499Z,8.3
2022-12-27T02:15:39.604Z,8.1
2022-12-27T02:16:56.709Z,8.3
2022-12-27T02:18:13.814Z,8.2
2022-12-27T02:19:29.940Z,8
2022-12-27T02:20:46.061Z,8.4
2022-12-27T02:22:02.187Z,8.5
2022-12-27T02:23:18.309Z,8.3
2022-12-27T02:24:35.414Z,8.2
2022-12-27T02:25:52.519Z,8.4
2022-12-27T02:27:09.624Z,8.3
2022-12-27T02:28:26.728Z,8.2
2022-12-27T02:29:43.834Z,8
2022-12-27T02:31:00.939Z,8.4
2022-12-27T02:32:18.044Z,7.9
2022-12-27T02:33:35.149Z,7.9
2022-12-27T02:34:52.254Z,8.2
2022-12-27T02:36:09.359Z,8.5
2022-12-27T02:37:26.464Z,8.4
2022-12-27T02:38:43.569Z,8.4
2022-12-27T02:39:59.690Z,8.3
2022-12-27T02:41:16.795Z,8.3
2022-12-27T02:42:33.900Z,8.3
2022-12-27T02:43:51.005Z,8.2
2022-12-27T02:45:08.110Z,8.8
2022-12-27T02:46:25.215Z,8.2
2022-12-27T02:47:42.320Z,8.1
2022-12-27T02:48:59.425Z,8.5
2022-12-27T02:50:15.551Z,8.5
2022-12-27T02:51:31.672Z,8.5
2022-12-27T02:52:48.777Z,8.2
2022-12-27T02:54:05.883Z,8.8
2022-12-27T02:55:22.007Z,8.3
2022-12-27T02:56:38.128Z,8.2
2022-12-27T02:57:55.233Z,8.2
2022-12-27T02:59:12.338Z,8.4
2022-12-27T03:00:29.443Z,8.1
2022-12-27T03:01:46.548Z,8.1
2022-12-27T03:03:03.653Z,8.2
2022-12-27T03:04:20.758Z,8
2022-12-27T03:05:37.863Z,8.3
2022-12-27T03:06:54.968Z,8.4
2022-12-27T03:08:12.073Z,8.3
2022-12-27T03:09:29.178Z,8.5
2022-12-27T03:10:46.283Z,8.3
2022-12-27T03:12:03.388Z,8.1
2022-12-27T03:13:19.509Z,8.4
2022-12-27T03:14:36.614Z,8.2
2022-12-27T03:15:53.719Z,8.2
2022-12-27T03:17:10.824Z,8.3
2022-12-27T03:18:27.929Z,8.1
2022-12-27T03:19:45.034Z,8.3
2022-12-27T03:21:02.139Z,7.9
2022-12-27T03:22:18.266Z,8.3
2022-12-27T03:23:34.387Z,8.3
2022-12-27T03:24:50.513Z,8.4
2022-12-27T03:26:06.634Z,8.4
2022-12-27T03:27:23.739Z,7.9
2022-12-27T03:28:40.844Z,8
2022-12-27T03:29:57.949Z,8.4
2022-12-27T03:31:15.054Z,8.5
2022-12-27T03:32:32.160Z,8.2
2022-12-27T03:33:49.265Z,7.8
2022-12-27T03:35:06.370Z,8.2
2022-12-27T03:36:23.475Z,8.3
2022-12-27T03:37:40.580Z,8.2
2022-12-27T03:38:57.686Z,8.3
2022-12-27T03:40:14.791Z,8.6
2022-12-27T03:41:31.896Z,8.6
2022-12-27T03:42:48.017Z,8.4
2022-12-27T03:44:05.122Z,8.2
2022-12-27T03:45:22.227Z,8.3
2022-12-27T03:46:39.332Z,8.3
2022-12-27T03:47:56.437Z,8.5
2022-12-27T03:49:13.542Z,8.2
2022-12-27T03:50:30.647Z,8.2
2022-12-27T03:51:46.773Z,8
2022-12-27T03:53:02.895Z,8
2022-12-27T03:54:20.000Z,8.1
2022-12-27T03:55:36.126Z,8.4
2022-12-27T03:56:52.247Z,8
2022-12-27T03:58:09.352Z,8.3
2022-12-27T03:59:26.457Z,8.3
2022-12-27T04:00:43.562Z,8.3
2022-12-27T04:02:00.668Z,8.4
2022-12-27T04:03:17.773Z,8.6
2022-12-27T04:04:34.878Z,8.6
2022-12-27T04:05:51.983Z,8.1
2022-12-27T04:07:09.088Z,8.2
2022-12-27T04:08:26.193Z,8.5
2022-12-27T04:09:43.298Z,8.5
2022-12-27T04:11:00.404Z,8.5
2022-12-27T04:12:17.509Z,8.8
2022-12-27T04:13:33.630Z,8.3
2022-12-27T04:14:50.735Z,8.1
2022-12-27T04:16:07.840Z,8.3
2022-12-27T04:17:24.945Z,8.6
2022-12-27T04:18:42.050Z,8.5
2022-12-27T04:19:59.155Z,8.4
2022-12-27T04:21:16.260Z,8.6
2022-12-27T04:22:33.365Z,8.3
2022-12-27T04:23:50.470Z,8.4
2022-12-27T04:25:07.575Z,8.2
2022-12-27T04:26:23.696Z,8.1
2022-12-27T04:27:39.823Z,8.3
2022-12-27T04:28:55.944Z,8
2022-12-27T04:30:12.070Z,8.5
2022-12-27T04:31:28.191Z,8.2
2022-12-27T04:32:45.297Z,8.4
2022-12-27T04:34:02.402Z,8.4
2022-12-27T04:35:19.507Z,8.2
2022-12-27T04:36:36.612Z,8.3
2022-12-27T04:37:53.717Z,8.2
2022-12-27T04:39:10.822Z,8.4
2022-12-27T04:40:27.927Z,8.3
2022-12-27T04:41:45.032Z,8.3
2022-12-27T04:43:02.137Z,8.5
2022-12-27T04:44:19.242Z,8.3
2022-12-27T04:45:36.347Z,8.1
2022-12-27T04:46:53.452Z,8.5
2022-12-27T04:48:09.573Z,8.6
2022-12-27T04:49:26.679Z,8.5
2022-12-27T04:50:43.784Z,8.7
2022-12-27T04:52:00.889Z,8.6
2022-12-27T04:53:17.994Z,8.7
2022-12-27T04:54:35.099Z,8.4
2022-12-27T04:55:52.204Z,8.5
2022-12-27T04:57:08.331Z,8.7
2022-12-27T04:58:24.452Z,8.5
2022-12-27T05:00:57.683Z,8.4
2022-12-27T05:02:13.809Z,8.3
2022-12-27T05:03:29.931Z,8
2022-12-27T05:04:47.036Z,8
2022-12-27T05:06:04.141Z,8
2022-12-27T05:07:21.246Z,8
2022-12-27T05:08:38.351Z,8.1
2022-12-27T05:09:55.456Z,7.9
2022-12-27T05:11:12.561Z,8.2
2022-12-27T05:12:29.665Z,8.5
2022-12-27T05:13:46.770Z,8.2
2022-12-27T05:15:03.875Z,7.9
2022-12-27T05:16:20.980Z,8.1
2022-12-27T05:17:38.086Z,8
2022-12-27T05:18:55.191Z,8.5
2022-12-27T05:20:11.312Z,8.4
2022-12-27T05:21:28.417Z,8.3
2022-12-27T05:22:45.522Z,8.1
2022-12-27T05:24:02.627Z,7.9
2022-12-27T05:25:19.732Z,8.3
2022-12-27T05:26:36.837Z,7.9
2022-12-27T05:27:53.943Z,8.1
2022-12-27T05:29:10.069Z,8.3
2022-12-27T05:30:26.190Z,8.6
2022-12-27T05:31:43.296Z,8.2
2022-12-27T05:32:59.422Z,8
2022-12-27T05:34:15.543Z,7.7
2022-12-27T05:35:32.648Z,7.6
2022-12-27T05:36:49.753Z,7.8
2022-12-27T05:38:06.858Z,8
2022-12-27T05:39:23.963Z,8
2022-12-27T05:40:41.068Z,7.9
2022-12-27T05:41:58.173Z,8
2022-12-27T05:43:15.278Z,8.2
2022-12-27T05:44:32.384Z,8.2
2022-12-27T05:45:49.489Z,8.1
2022-12-27T05:47:06.594Z,8.1
2022-12-27T05:48:23.699Z,8.1
2022-12-27T05:49:40.804Z,8.1
2022-12-27T05:50:56.925Z,8
2022-12-27T05:52:14.030Z,7.9
2022-12-27T05:53:31.135Z,8.2
2022-12-27T05:54:48.240Z,7.9
2022-12-27T05:56:05.346Z,8
2022-12-27T05:57:22.451Z,8
2022-12-27T05:58:39.556Z,8
2022-12-27T05:59:55.682Z,8.2
2022-12-27T06:02:28.908Z,8.3
2022-12-27T06:03:45.035Z,7.8
2022-12-27T06:05:01.156Z,8.1
2022-12-27T06:06:18.261Z,7.9
2022-12-27T06:07:35.367Z,8.1
2022-12-27T06:08:52.472Z,8.4
2022-12-27T06:10:09.577Z,7.7
2022-12-27T06:11:26.682Z,7.6
2022-12-27T06:12:43.787Z,7.7
2022-12-27T06:14:00.892Z,7.6
2022-12-27T06:15:17.997Z,7.6
2022-12-27T06:16:35.102Z,7.8
2022-12-27T06:17:52.207Z,7.6
2022-12-27T06:19:09.313Z,7.6
2022-12-27T06:20:26.418Z,7.4
2022-12-27T06:21:42.539Z,7.4
2022-12-27T06:22:59.644Z,7.7
2022-12-27T06:24:16.750Z,7.6
2022-12-27T06:25:33.855Z,7.5
2022-12-27T06:26:50.960Z,7.5
2022-12-27T06:28:08.065Z,7.7
2022-12-27T06:29:25.170Z,7.8
2022-12-27T06:30:41.297Z,7.7
2022-12-27T06:31:57.418Z,7.7
2022-12-27T06:33:13.544Z,7.6
2022-12-27T06:34:29.665Z,7.4
2022-12-27T06:35:46.770Z,7.4
2022-12-27T06:37:03.875Z,7.5
2022-12-27T06:38:20.981Z,7.6
2022-12-27T06:39:38.086Z,7.7
2022-12-27T06:40:55.191Z,7.5
2022-12-27T06:42:12.296Z,7.6
2022-12-27T06:43:29.400Z,7.6
2022-12-27T06:44:46.505Z,7.6
2022-12-27T06:46:03.610Z,7.7
2022-12-27T06:47:20.716Z,7.9
2022-12-27T06:48:37.821Z,7.9
2022-12-27T06:49:54.926Z,7.5
2022-12-27T06:51:11.047Z,7.6
2022-12-27T06:52:28.152Z,7.7
2022-12-27T06:53:45.257Z,7.7
2022-12-27T06:55:02.362Z,7.9
2022-12-27T06:56:19.467Z,7.6
2022-12-27T06:57:36.572Z,7.7
2022-12-27T06:58:53.677Z,7.6
2022-12-27T07:00:09.804Z,7.9
2022-12-27T07:01:25.925Z,7.8
2022-12-27T07:02:42.051Z,8
2022-12-27T07:03:58.172Z,7.4
2022-12-27T07:05:15.278Z,7.7
2022-12-27T07:06:32.383Z,7.9
2022-12-27T07:07:49.488Z,7.7
2022-12-27T07:09:06.593Z,7.7
2022-12-27T07:10:23.698Z,7.7
2022-12-27T07:11:40.803Z,7.2
2022-12-27T07:12:57.908Z,7.4
2022-12-27T07:14:15.014Z,8.2
2022-12-27T07:15:32.119Z,7.8
2022-12-27T07:16:49.224Z,7.7
2022-12-27T07:18:06.329Z,7.9
2022-12-27T07:19:23.434Z,7.5
2022-12-27T07:20:39.555Z,7.1
2022-12-27T07:21:56.661Z,7.2
2022-12-27T07:23:13.766Z,7.5
2022-12-27T07:24:30.871Z,7.7
2022-12-27T07:25:47.976Z,7.7
2022-12-27T07:27:05.081Z,7.8
2022-12-27T07:28:22.186Z,8.2
2022-12-27T07:29:39.291Z,7.6
2022-12-27T07:30:56.396Z,8.3
2022-12-27T07:32:13.501Z,8.6
2022-12-27T07:33:30.606Z,8.4
2022-12-27T07:34:47.711Z,8.2
2022-12-27T07:36:04.816Z,7.9
2022-12-27T07:37:20.937Z,8.1
2022-12-27T07:38:38.043Z,9
2022-12-27T07:39:55.148Z,8.3
2022-12-27T07:41:11.274Z,8.2
2022-12-27T07:42:27.396Z,7.8
2022-12-27T07:43:43.522Z,8.3
2022-12-27T07:44:59.643Z,8.4
2022-12-27T07:46:16.748Z,8.2
2022-12-27T07:47:33.853Z,7.9
2022-12-27T07:48:50.959Z,8.4
2022-12-27T07:50:08.064Z,8.3
2022-12-27T07:51:25.169Z,8.5
2022-12-27T07:52:42.274Z,7.8
2022-12-27T07:53:59.379Z,8
2022-12-27T07:55:16.484Z,7.9
2022-12-27T07:56:33.589Z,7.9
2022-12-27T07:57:50.694Z,8.2
2022-12-27T07:59:07.799Z,7.8
2022-12-27T08:00:24.905Z,7.8
2022-12-27T08:01:41.027Z,7.7
2022-12-27T08:02:58.132Z,8.3
2022-12-27T08:04:15.237Z,8
2022-12-27T08:05:32.342Z,7.8
2022-12-27T08:06:49.447Z,7.8
2022-12-27T08:08:06.552Z,8
2022-12-27T08:09:23.657Z,8.2
2022-12-27T08:10:39.784Z,7.5
2022-12-27T08:11:55.905Z,7.7
2022-12-27T08:13:12.031Z,7.5
2022-12-27T08:14:28.152Z,7.8
2022-12-27T08:15:45.257Z,7.8
2022-12-27T08:17:02.363Z,7.8
2022-12-27T08:18:19.467Z,7.6
2022-12-27T08:19:36.572Z,8.1
2022-12-27T08:20:53.678Z,7.7
2022-12-27T08:22:10.783Z,7.5
2022-12-27T08:23:27.888Z,7.7
2022-12-27T08:24:44.993Z,7.8
2022-12-27T08:26:02.098Z,7.9
2022-12-27T08:27:19.203Z,7.8
2022-12-27T08:28:36.308Z,7.6
2022-12-27T08:29:53.413Z,7.5
2022-12-27T08:31:09.534Z,7.4
2022-12-27T08:32:26.640Z,7.5
2022-12-27T08:33:43.746Z,7.7
2022-12-27T08:35:00.851Z,7.4
2022-12-27T08:36:17.956Z,7.5
2022-12-27T08:37:35.060Z,7.5
2022-12-27T08:38:52.165Z,7
2022-12-27T08:40:08.291Z,7
2022-12-27T08:41:24.412Z,7.2
2022-12-27T08:42:40.539Z,7.5
2022-12-27T08:43:56.660Z,7.4
2022-12-27T08:45:13.764Z,7.3
2022-12-27T08:46:30.869Z,7.4
2022-12-27T08:47:47.974Z,7.5
2022-12-27T08:49:05.079Z,7.6
2022-12-27T08:50:22.184Z,7.6
2022-12-27T08:51:39.289Z,7.8
2022-12-27T08:52:56.394Z,7.3
2022-12-27T08:54:13.499Z,7.8
2022-12-27T08:55:30.603Z,7.5
2022-12-27T08:56:47.708Z,7.7
2022-12-27T08:58:04.813Z,7.3
2022-12-27T08:59:21.918Z,7.6
2022-12-27T09:00:38.039Z,7.4
2022-12-27T09:01:55.144Z,7.4
2022-12-27T09:03:12.249Z,7.8
2022-12-27T09:04:29.353Z,7.6
2022-12-27T09:05:46.458Z,8.1
2022-12-27T09:07:03.563Z,7.3
2022-12-27T09:08:20.668Z,7.6
2022-12-27T09:09:36.794Z,7.4
2022-12-27T09:10:52.915Z,7.9
2022-12-27T09:12:09.041Z,7.9
2022-12-27T09:13:25.162Z,8
2022-12-27T09:14:42.267Z,7.8
2022-12-27T09:15:59.372Z,7.4
2022-12-27T09:17:16.477Z,8.1
2022-12-27T09:18:33.581Z,7.6
2022-12-27T09:19:50.686Z,7.9
2022-12-27T09:21:07.791Z,7.9
2022-12-27T09:22:24.896Z,8.1
2022-12-27T09:23:42.000Z,7.8
2022-12-27T09:24:59.106Z,7.4
2022-12-27T09:26:16.210Z,7.8
2022-12-27T09:27:33.315Z,7.4
2022-12-27T09:28:50.420Z,7.6
2022-12-27T09:30:06.541Z,7.8
2022-12-27T09:31:23.645Z,7.5
2022-12-27T09:32:40.750Z,7.8
2022-12-27T09:33:57.855Z,7.6
2022-12-27T09:35:14.959Z,8
2022-12-27T09:36:32.065Z,9.1
2022-12-27T09:37:49.169Z,8.5
2022-12-27T09:39:05.295Z,7.9
2022-12-27T09:40:21.416Z,7.7
2022-12-27T09:41:37.542Z,7.5
2022-12-27T09:42:53.663Z,7.4
2022-12-27T09:44:10.768Z,7.9
2022-12-27T09:45:27.873Z,7.7
2022-12-27T09:46:44.977Z,7.7
2022-12-27T09:48:02.082Z,7.5
2022-12-27T09:49:19.187Z,7.7
2022-12-27T09:50:36.291Z,7.4
2022-12-27T09:51:53.396Z,7.4
2022-12-27T09:53:10.501Z,7.2
2022-12-27T09:54:27.606Z,7.5
2022-12-27T09:55:44.710Z,7.2
2022-12-27T09:57:01.815Z,7.3
2022-12-27T09:58:18.920Z,7.7
2022-12-27T09:59:35.040Z,7.7
2022-12-27T10:00:52.145Z,7.6
2022-12-27T10:02:09.250Z,8.5
2022-12-27T10:03:26.355Z,7.8
2022-12-27T10:04:43.460Z,6.9
2022-12-27T10:06:00.564Z,7.2
2022-12-27T10:07:17.669Z,7.5
2022-12-27T10:08:33.795Z,7.7
2022-12-27T10:09:49.916Z,7.7
2022-12-27T10:11:07.021Z,7.5
2022-12-27T10:12:23.147Z,7.2
2022-12-27T10:13:39.268Z,7.6
2022-12-27T10:14:56.372Z,7.4
2022-12-27T10:16:13.477Z,7.2
2022-12-27T10:17:30.582Z,7.4
2022-12-27T10:18:47.687Z,7.5
2022-12-27T10:20:04.791Z,7.5
2022-12-27T10:21:21.896Z,7.6
2022-12-27T10:22:39.001Z,8
2022-12-27T10:23:56.105Z,7.6
2022-12-27T10:25:13.210Z,7.3
2022-12-27T10:26:30.315Z,7.2
2022-12-27T10:27:47.419Z,7.1
2022-12-27T10:29:04.524Z,7.4
2022-12-27T10:30:20.645Z,6.9
2022-12-27T10:31:37.750Z,7.4
2022-12-27T10:32:54.854Z,7.5
2022-12-27T10:34:11.959Z,7.3
2022-12-27T10:35:29.064Z,7.3
2022-12-27T10:36:46.168Z,7.5
2022-12-27T10:38:03.273Z,7.5
2022-12-27T10:39:19.399Z,8
2022-12-27T10:40:35.520Z,8.7
2022-12-27T10:41:52.624Z,7.8
2022-12-27T10:43:08.750Z,7.6
2022-12-27T10:44:24.871Z,7.4
2022-12-27T10:45:41.976Z,7.2
2022-12-27T10:46:59.080Z,7.3
2022-12-27T10:48:16.185Z,7.3
2022-12-27T10:49:33.290Z,7.4
2022-12-27T10:50:50.395Z,7.1
2022-12-27T10:52:07.499Z,7
2022-12-27T10:53:24.604Z,7.3
2022-12-27T10:54:41.709Z,7.1
2022-12-27T10:55:58.814Z,7.3
2022-12-27T10:57:15.918Z,7.2
2022-12-27T10:58:33.023Z,7.5
2022-12-27T10:59:50.128Z,6.9
2022-12-27T11:01:06.248Z,7.5
2022-12-27T11:02:23.353Z,7.4
2022-12-27T11:03:40.458Z,7.4
2022-12-27T11:04:57.562Z,7.5
2022-12-27T11:06:14.667Z,7.6
2022-12-27T11:07:31.772Z,7.3
2022-12-27T11:08:48.877Z,7.6
2022-12-27T11:10:05.003Z,7.4
2022-12-27T11:11:21.124Z,7.8
2022-12-27T11:12:38.228Z,7.4
2022-12-27T11:13:55.333Z,7.5
2022-12-27T11:15:11.459Z,7.1
2022-12-27T11:16:27.580Z,7.6
2022-12-27T11:17:44.684Z,7.2
2022-12-27T11:19:01.789Z,7.7
2022-12-27T11:20:18.893Z,7.6
2022-12-27T11:21:35.998Z,7.6
2022-12-27T11:22:53.103Z,10.2
2022-12-27T11:24:10.208Z,8.3
2022-12-27T11:25:27.312Z,7.6
2022-12-27T11:26:44.417Z,8
2022-12-27T11:28:01.521Z,8.1
2022-12-27T11:29:18.626Z,7.9
2022-12-27T11:30:35.730Z,7.7
2022-12-27T11:31:52.835Z,7.9
2022-12-27T11:33:08.956Z,8.2
2022-12-27T11:34:26.061Z,7.9
2022-12-27T11:35:43.165Z,8.6
2022-12-27T11:37:00.270Z,8
2022-12-27T11:38:17.375Z,7.7
2022-12-27T11:39:34.479Z,7.8
2022-12-27T11:40:51.585Z,7.9
2022-12-27T11:42:07.711Z,7.9
2022-12-27T11:43:23.831Z,8.1
2022-12-27T11:44:39.957Z,7.9
2022-12-27T11:45:56.078Z,7.3
2022-12-27T11:47:13.183Z,7.2
2022-12-27T11:48:30.287Z,7.8
2022-12-27T11:49:47.392Z,7.7
2022-12-27T11:51:04.497Z,7.7
2022-12-27T11:52:21.601Z,7.7
2022-12-27T11:53:38.706Z,7.7
2022-12-27T11:54:55.808Z,7.2
2022-12-27T11:56:12.913Z,7.2
2022-12-27T11:57:30.018Z,8.4
2022-12-27T11:58:47.122Z,7.5
2022-12-27T12:00:04.227Z,7.4
2022-12-27T12:01:21.332Z,7.6
2022-12-27T12:02:37.453Z,7.9
2022-12-27T12:03:54.557Z,8.1
2022-12-27T12:05:11.662Z,7.6
2022-12-27T12:06:28.767Z,9.2
2022-12-27T12:07:45.871Z,8.3
2022-12-27T12:09:02.977Z,7.9
2022-12-27T12:10:20.081Z,7.7
2022-12-27T12:11:36.207Z,7.6
2022-12-27T12:12:52.328Z,8
2022-12-27T12:14:09.433Z,7.5
2022-12-27T12:15:25.559Z,7.4
2022-12-27T12:16:41.680Z,7.4
2022-12-27T12:17:58.785Z,7.2
2022-12-27T12:19:15.889Z,7.7
2022-12-27T12:20:32.994Z,7.4
2022-12-27T12:21:50.098Z,7.8
2022-12-27T12:23:07.203Z,7.9
2022-12-27T12:24:24.308Z,7.4
2022-12-27T12:25:41.412Z,7.5
2022-12-27T12:26:58.517Z,7.8
2022-12-27T12:28:15.622Z,8.8
2022-12-27T12:29:32.727Z,8.3
2022-12-27T12:30:49.831Z,8.2
2022-12-27T12:32:06.936Z,7.9
2022-12-27T12:33:23.057Z,8.3
2022-12-27T12:34:40.162Z,7.6
2022-12-27T12:35:57.266Z,7.3
2022-12-27T12:37:14.371Z,7.6
2022-12-27T12:38:31.476Z,7.8
2022-12-27T12:39:48.581Z,7.9
2022-12-27T12:41:05.686Z,7.6
2022-12-27T12:42:21.812Z,7.5
2022-12-27T12:43:37.933Z,7.7
2022-12-27T12:44:55.038Z,7.9
2022-12-27T12:46:11.164Z,8.1
2022-12-27T12:47:27.284Z,7.8
2022-12-27T12:48:44.389Z,8
2022-12-27T12:50:01.494Z,7.4
2022-12-27T12:51:18.598Z,7.5
2022-12-27T12:52:35.703Z,8.3
2022-12-27T12:53:52.808Z,9.3
2022-12-27T12:55:09.913Z,9.4
2022-12-27T12:56:27.017Z,8.7
2022-12-27T12:57:44.122Z,8.2
2022-12-27T12:59:01.227Z,7.6
2022-12-27T13:00:18.331Z,7.7
2022-12-27T13:01:34.452Z,8.1
2022-12-27T13:02:51.557Z,13.3
2022-12-27T13:04:08.662Z,8.4
2022-12-27T13:05:25.767Z,8.4
2022-12-27T13:06:42.872Z,8.5
2022-12-27T13:07:59.976Z,8.3
2022-12-27T13:09:17.081Z,8
2022-12-27T13:10:34.186Z,8
2022-12-27T13:11:51.291Z,8.2
2022-12-27T13:13:07.417Z,8.8
2022-12-27T13:14:23.538Z,9.4
2022-12-27T13:15:40.642Z,8.3
2022-12-27T13:16:56.768Z,8.4
2022-12-27T13:18:12.889Z,8.4
2022-12-27T13:19:29.994Z,8.6
2022-12-27T13:20:47.099Z,8.3
2022-12-27T13:22:04.204Z,8
2022-12-27T13:23:21.309Z,8.4
2022-12-27T13:24:38.413Z,8.3
2022-12-27T13:25:55.518Z,8.6
2022-12-27T13:27:12.623Z,8.3
2022-12-27T13:28:29.728Z,8.6
2022-12-27T13:29:46.832Z,9
2022-12-27T13:31:03.937Z,8.5
2022-12-27T13:32:21.042Z,8.9
2022-12-27T13:33:38.147Z,8.5
2022-12-27T13:34:54.268Z,8.9
2022-12-27T13:36:11.373Z,9
2022-12-27T13:37:28.477Z,8.8
2022-12-27T13:38:45.582Z,8.4
2022-12-27T13:40:02.687Z,8.6
2022-12-27T13:41:19.792Z,9
2022-12-27T13:42:36.897Z,9.1
2022-12-27T13:43:53.023Z,8.9
2022-12-27T13:45:09.144Z,8.8
2022-12-27T13:46:26.248Z,9
2022-12-27T13:47:43.353Z,8.4
2022-12-27T13:48:59.479Z,8.4
2022-12-27T13:50:15.600Z,9
2022-12-27T13:51:32.705Z,8.8
2022-12-27T13:52:49.810Z,9.2
2022-12-27T13:54:06.915Z,8.6
2022-12-27T13:55:24.019Z,8.4
2022-12-27T13:56:41.124Z,8.8
2022-12-27T13:57:58.229Z,8.5
2022-12-27T13:59:15.334Z,8.4
2022-12-27T14:00:32.439Z,8.5
2022-12-27T14:01:49.544Z,8.7
2022-12-27T14:03:06.649Z,8.3
2022-12-27T14:04:23.754Z,8.7
2022-12-27T14:05:40.859Z,8.6
2022-12-27T14:06:56.980Z,9
2022-12-27T14:08:14.084Z,8.9
2022-12-27T14:09:31.189Z,8.9
2022-12-27T14:10:48.294Z,8.8
2022-12-27T14:12:05.399Z,9.3
2022-12-27T14:13:22.504Z,9
2022-12-27T14:14:39.608Z,9.1
2022-12-27T14:15:55.734Z,8.9
2022-12-27T14:17:11.855Z,8.8
2022-12-27T14:18:27.982Z,9.5
2022-12-27T14:19:44.102Z,9
2022-12-27T14:21:01.207Z,8.7
2022-12-27T14:22:18.312Z,8.4
2022-12-27T14:23:35.417Z,8.9
2022-12-27T14:24:52.522Z,8.6
2022-12-27T14:26:09.626Z,10.3
2022-12-27T14:27:26.731Z,9.3
2022-12-27T14:28:43.836Z,11.8
2022-12-27T14:30:00.941Z,9.2
2022-12-27T14:31:18.045Z,8.8
2022-12-27T14:32:35.150Z,8.6
2022-12-27T14:33:52.255Z,9.2
2022-12-27T14:35:09.360Z,9.2
2022-12-27T14:36:25.481Z,9.3
2022-12-27T14:37:42.585Z,10
2022-12-27T14:38:59.690Z,8.5
2022-12-27T14:40:16.795Z,8.6
2022-12-27T14:41:33.900Z,8.7
2022-12-27T14:42:51.004Z,8.6
2022-12-27T14:44:08.109Z,8.7
2022-12-27T14:45:25.214Z,8.7
2022-12-27T14:46:42.319Z,9.2
2022-12-27T14:47:59.424Z,8.6
2022-12-27T14:49:16.528Z,8.8
2022-12-27T14:50:33.633Z,8.8
2022-12-27T14:51:50.738Z,8.9
2022-12-27T14:53:06.859Z,9
2022-12-27T14:54:23.963Z,8.9
2022-12-27T14:55:41.068Z,9.2
2022-12-27T14:56:57.194Z,9.3
2022-12-27T14:58:13.315Z,9.1
2022-12-27T14:59:29.441Z,9.4
2022-12-27T15:00:45.562Z,9.5
2022-12-27T15:02:02.667Z,9.3
2022-12-27T15:03:19.772Z,8.9
2022-12-27T15:04:36.877Z,9.1
2022-12-27T15:05:53.981Z,9.4
2022-12-27T15:07:11.086Z,8.9
2022-12-27T15:08:28.191Z,9
2022-12-27T15:09:45.296Z,9.1
2022-12-27T15:11:02.400Z,9
2022-12-27T15:12:19.505Z,9.1
2022-12-27T15:13:36.610Z,8.7
2022-12-27T15:14:53.715Z,9.2
2022-12-27T15:16:10.820Z,9
2022-12-27T15:17:26.940Z,9
2022-12-27T15:18:44.045Z,8.6
2022-12-27T15:20:01.150Z,8.6
2022-12-27T15:21:18.255Z,9.3
2022-12-27T15:22:35.359Z,8.7
2022-12-27T15:23:52.464Z,9.1
2022-12-27T15:25:09.569Z,9.1
2022-12-27T15:26:26.674Z,8.8
2022-12-27T15:27:43.778Z,8.6
2022-12-27T15:29:00.883Z,8.5
2022-12-27T15:30:17.988Z,8.8
2022-12-27T15:31:35.092Z,8.5
2022-12-27T15:32:52.197Z,9.1
2022-12-27T15:34:08.318Z,8.5
2022-12-27T15:35:25.423Z,8.7
2022-12-27T15:36:42.528Z,8.6
2022-12-27T15:37:59.632Z,8.7
2022-12-27T15:39:16.737Z,9
2022-12-27T15:40:33.842Z,8.5
2022-12-27T15:41:50.947Z,8.9
2022-12-27T15:43:08.051Z,9.1
2022-12-27T15:44:25.156Z,9.1
2022-12-27T15:45:42.261Z,8.8
2022-12-27T15:46:59.366Z,8.7
2022-12-27T15:48:15.492Z,8.6
2022-12-27T15:49:31.613Z,8.6
2022-12-27T15:50:47.739Z,8.8
2022-12-27T15:52:03.860Z,8.3
2022-12-27T15:53:20.965Z,8.5
2022-12-27T15:54:38.069Z,8.2
2022-12-27T15:55:55.174Z,8.6
2022-12-27T15:57:12.279Z,8.8
2022-12-27T15:58:29.384Z,8.5
2022-12-27T15:59:46.488Z,8.7
2022-12-27T16:01:03.593Z,8.6
2022-12-27T16:02:20.698Z,8.7
2022-12-27T16:03:37.803Z,8.9
2022-12-27T16:04:54.908Z,8.4
2022-12-27T16:06:12.011Z,8.6
2022-12-27T16:07:29.115Z,8.4
2022-12-27T16:08:45.236Z,8.8
2022-12-27T16:10:02.341Z,8.9
2022-12-27T16:11:19.446Z,9.3
2022-12-27T16:12:36.551Z,8.8
2022-12-27T16:13:53.656Z,8.2
2022-12-27T16:15:10.760Z,8.3
2022-12-27T16:16:27.865Z,8.4
2022-12-27T16:17:43.991Z,8.7
2022-12-27T16:19:00.112Z,8.8
2022-12-27T16:20:17.217Z,8.6
2022-12-27T16:21:34.322Z,8.7
2022-12-27T16:22:50.448Z,8.6
2022-12-27T16:24:06.569Z,9.1
2022-12-27T16:25:23.674Z,8.8
2022-12-27T16:26:40.778Z,9.3
2022-12-27T16:27:57.883Z,9.3
2022-12-27T16:29:14.989Z,8.5
2022-12-27T16:30:32.093Z,9.6
2022-12-27T16:31:49.198Z,9
2022-12-27T16:33:06.303Z,9.5
2022-12-27T16:34:23.408Z,9.1
2022-12-27T16:35:40.513Z,9.2
2022-12-27T16:36:57.617Z,9
2022-12-27T16:38:14.722Z,9.3
2022-12-27T16:39:31.829Z,9.2
2022-12-27T16:40:47.949Z,9.3
2022-12-27T16:42:05.054Z,9.4
2022-12-27T16:43:22.159Z,8.9
2022-12-27T16:44:39.264Z,9.1
2022-12-27T16:45:56.369Z,8.9
2022-12-27T16:47:13.474Z,9
2022-12-27T16:48:30.579Z,9.5
2022-12-27T16:49:46.705Z,9.2
2022-12-27T16:51:02.826Z,9.3
2022-12-27T16:52:18.952Z,9.3
2022-12-27T16:53:35.073Z,9.1
2022-12-27T16:54:52.178Z,9.4
2022-12-27T16:56:09.283Z,9.3
2022-12-27T16:57:26.388Z,9.7
2022-12-27T16:58:43.493Z,9.4
2022-12-27T17:00:00.598Z,9
2022-12-27T17:01:17.703Z,9.2
2022-12-27T17:02:34.808Z,9.3
2022-12-27T17:03:51.913Z,9.2
2022-12-27T17:05:09.018Z,9.2
2022-12-27T17:06:26.124Z,9.1
2022-12-27T17:07:43.229Z,9.4
2022-12-27T17:09:00.334Z,10
2022-12-27T17:10:16.455Z,9.8
2022-12-27T17:11:33.560Z,9.8
2022-12-27T17:12:50.665Z,9.4
2022-12-27T17:14:07.770Z,9.6
2022-12-27T17:15:24.875Z,9.9
2022-12-27T17:16:41.980Z,9.7
2022-12-27T17:17:59.086Z,10.2
2022-12-27T17:19:16.191Z,10.4
2022-12-27T17:20:32.328Z,9.7
2022-12-27T17:21:48.449Z,9.6
2022-12-27T17:23:04.575Z,9.8
2022-12-27T17:24:20.697Z,9.9
2022-12-27T17:25:37.802Z,9.7
2022-12-27T17:26:54.907Z,10
2022-12-27T17:28:12.012Z,10.2
2022-12-27T17:29:29.118Z,9.8
2022-12-27T17:30:46.223Z,9.4
2022-12-27T17:32:03.328Z,9.4
2022-12-27T17:33:20.433Z,9.9
2022-12-27T17:34:37.539Z,9.7
2022-12-27T17:35:54.644Z,9.7
2022-12-27T17:37:11.749Z,9.3
2022-12-27T17:38:28.854Z,9.9
2022-12-27T17:39:45.959Z,9.4
2022-12-27T17:41:02.080Z,9.2
2022-12-27T17:42:19.186Z,9.8
2022-12-27T17:43:36.291Z,9.4
2022-12-27T17:44:53.396Z,9.6
2022-12-27T17:46:10.501Z,9.5
2022-12-27T17:47:27.606Z,9.7